Mooresville, Indiana
Current Conditions -  °F | °C
As of 7:19 AM on Friday 19 Dec 2014 (Local Time) from KIND Reporting Station
Broken Clouds Broken Clouds  
Wind Chill: 12°   Ceiling: 2300
Heat Index: 20°   Visibility: 7mi
Dew Point: 17°   Wind: 6mph
Humidity: 89%   Direction: 310°NW
Pressure: 30.27"   Gusts: NA
Location:  39.61°N, 86.37°W
Report Text: KIND 191219Z 31005KT 7SM BKN023 M07/M08 A3027 RMK AO2 T10671083
Loading
Personal Weather Stations






























Interactive Weather Map New forecast layout! Learn more

10-Day Weather Forecast

Advertisements
Track Severe Weather on mobile